Time;durP1;ratioP1;P1;durP2;ratioP2;P2;SDS_P1;SDS_P2;PMS_P1;PMS_P2;Temp;Humidity;BMP_temperature;BMP_pressure;BME280_temperature;BME280_humidity;BME280_pressure;Samples;Min_cycle;Max_cycle;Signal;HPM_P1;HPM_P2
2023/07/01 00:01:35;;;;;;;3.08;2.60;;;17.90;99.90;;;;;;4916355;29;20024;-73
2023/07/01 00:04:01;;;;;;;3.38;3.08;;;17.80;99.90;;;;;;4934685;29;20031;-73
2023/07/01 00:06:27;;;;;;;4.03;2.67;;;17.80;99.90;;;;;;4910852;29;20507;-73
2023/07/01 00:08:54;;;;;;;3.33;2.60;;;17.70;99.90;;;;;;4933956;29;20473;-72
2023/07/01 00:11:20;;;;;;;3.38;2.58;;;17.60;99.90;;;;;;4933255;29;20476;-80
2023/07/01 00:13:45;;;;;;;3.85;2.60;;;17.50;99.90;;;;;;4934291;29;20421;-72
2023/07/01 00:16:13;;;;;;;5.20;2.70;;;17.50;99.90;;;;;;4933567;29;20036;-73
2023/07/01 00:18:42;;;;;;;4.28;2.83;;;17.40;99.90;;;;;;4933525;29;20496;-72
2023/07/01 00:21:08;;;;;;;3.53;2.58;;;17.30;99.90;;;;;;4933886;29;20043;-74
2023/07/01 00:23:34;;;;;;;5.30;2.88;;;17.30;99.90;;;;;;4933775;29;20032;-74
2023/07/01 00:26:00;;;;;;;4.38;2.53;;;17.20;99.90;;;;;;4933843;29;20044;-76
2023/07/01 00:28:26;;;;;;;3.20;2.42;;;;;;;;;;4933549;29;20573;-75
2023/07/01 00:30:52;;;;;;;4.85;2.50;;;;;;;;;;4933917;29;20037;-74
2023/07/01 00:33:18;;;;;;;2.80;2.50;;;;;;;;;;4934379;29;20527;-82
2023/07/01 00:35:44;;;;;;;3.25;2.30;;;;;;;;;;4933366;29;20118;-74
2023/07/01 00:38:10;;;;;;;4.25;2.63;;;;;;;;;;4934100;29;20032;-74
2023/07/01 00:40:36;;;;;;;2.35;2.10;;;;;;;;;;4932756;29;20035;-74
2023/07/01 00:43:02;;;;;;;5.95;2.78;;;;;;;;;;4933624;29;20064;-75
2023/07/01 00:45:28;;;;;;;4.63;2.78;;;;;;;;;;4927028;29;20031;-74
2023/07/01 00:47:54;;;;;;;6.72;2.58;;;;;;;;;;4937617;29;20032;-72
2023/07/01 00:50:19;;;;;;;4.45;2.60;;;16.80;99.90;;;;;;4936773;29;20027;-79
2023/07/01 00:52:47;;;;;;;2.50;2.30;;;16.80;99.90;;;;;;4920718;29;20031;-73
2023/07/01 00:55:12;;;;;;;4.38;2.53;;;16.70;99.90;;;;;;4937197;29;20070;-74
2023/07/01 00:57:38;;;;;;;3.40;2.25;;;16.60;99.90;;;;;;4937032;29;20371;-73
2023/07/01 01:00:13;;;;;;;4.32;2.67;;;16.60;99.90;;;;;;4937077;29;20500;-73
2023/07/01 01:03:08;;;;;;;6.60;2.60;;;16.60;99.90;;;;;;4936434;29;20027;-74
2023/07/01 01:05:38;;;;;;;3.67;2.42;;;16.50;99.90;;;;;;4936548;29;20062;-73
2023/07/01 01:08:44;;;;;;;4.18;2.15;;;16.50;99.90;;;;;;4937531;29;20500;-73
2023/07/01 01:11:13;;;;;;;4.63;2.45;;;16.50;99.90;;;;;;4936471;29;20102;-73
2023/07/01 01:13:41;;;;;;;3.80;2.83;;;16.40;99.90;;;;;;4936561;29;20027;-73
2023/07/01 01:16:07;;;;;;;2.85;2.42;;;16.40;99.90;;;;;;4936729;29;20094;-74
2023/07/01 01:18:33;;;;;;;3.83;2.60;;;16.40;99.90;;;;;;4936671;29;20027;-73
2023/07/01 01:20:59;;;;;;;4.90;2.63;;;16.40;99.90;;;;;;4936830;29;20028;-74
2023/07/01 01:23:38;;;;;;;4.38;2.20;;;16.30;99.90;;;;;;4936707;29;20027;-73
2023/07/01 01:26:15;;;;;;;3.28;2.40;;;16.30;99.90;;;;;;4936794;29;20042;-72
2023/07/01 01:28:41;;;;;;;3.92;2.50;;;16.30;99.90;;;;;;4936874;29;20078;-73
2023/07/01 01:31:06;;;;;;;4.38;2.28;;;16.20;99.90;;;;;;4936659;29;20114;-73
2023/07/01 01:33:32;;;;;;;5.80;2.50;;;16.20;99.90;;;;;;4936577;29;20038;-73
2023/07/01 01:36:17;;;;;;;2.42;1.90;;;16.20;99.90;;;;;;4936389;29;20114;-74
2023/07/01 01:38:43;;;;;;;5.15;2.00;;;16.20;99.90;;;;;;4936787;29;20036;-73
2023/07/01 01:41:17;;;;;;;4.97;2.25;;;16.20;99.90;;;;;;4936417;29;20032;-72
2023/07/01 01:44:12;;;;;;;3.28;2.40;;;16.10;99.90;;;;;;4935874;29;20055;-73
2023/07/01 01:46:39;;;;;;;3.75;2.17;;;16.00;99.90;;;;;;4929805;29;20521;-72
2023/07/01 01:49:08;;;;;;;3.97;2.20;;;16.00;99.90;;;;;;4936522;29;20031;-73
2023/07/01 01:51:36;;;;;;;4.25;2.25;;;15.90;99.90;;;;;;4935438;29;20038;-72
2023/07/01 01:54:05;;;;;;;5.13;2.63;;;15.90;99.90;;;;;;4936157;29;20067;-73
2023/07/01 01:56:32;;;;;;;4.67;2.37;;;15.90;99.90;;;;;;4918157;29;20031;-73
2023/07/01 01:58:58;;;;;;;3.35;2.67;;;15.90;99.90;;;;;;4939375;29;20032;-73
2023/07/01 02:01:24;;;;;;;6.00;2.70;;;15.90;99.90;;;;;;4942305;29;20034;-74
2023/07/01 02:03:49;;;;;;;3.50;2.33;;;15.90;99.90;;;;;;4941636;29;20102;-74
2023/07/01 02:06:15;;;;;;;5.80;2.55;;;15.90;99.90;;;;;;4941707;29;20027;-77
2023/07/01 02:08:40;;;;;;;4.90;2.65;;;15.90;99.90;;;;;;4935838;29;20031;-72
2023/07/01 02:11:06;;;;;;;3.97;2.70;;;15.90;99.90;;;;;;4935389;29;20055;-72
2023/07/01 02:13:32;;;;;;;4.82;3.33;;;15.80;99.90;;;;;;4936054;29;20042;-72
2023/07/01 02:15:58;;;;;;;3.75;2.55;;;15.80;99.90;;;;;;4936376;29;20401;-73
2023/07/01 02:18:24;;;;;;;4.13;2.47;;;15.90;99.90;;;;;;4934948;29;20031;-74
2023/07/01 02:20:49;;;;;;;4.80;2.63;;;15.90;99.90;;;;;;4936017;29;20413;-72
2023/07/01 02:23:15;;;;;;;6.28;2.45;;;15.90;99.90;;;;;;4936121;29;20031;-73
2023/07/01 02:25:42;;;;;;;2.92;2.70;;;15.90;99.90;;;;;;4934897;29;20035;-74
2023/07/01 02:28:08;;;;;;;3.17;2.47;;;15.80;99.90;;;;;;4935831;29;20035;-73
2023/07/01 02:30:35;;;;;;;2.90;2.40;;;15.80;99.90;;;;;;4925680;29;20024;-72
2023/07/01 02:33:01;;;;;;;2.65;2.38;;;15.80;99.90;;;;;;4934198;29;20032;-75
2023/07/01 02:35:27;;;;;;;3.10;2.45;;;15.70;99.90;;;;;;4934461;29;20043;-73
2023/07/01 02:37:52;;;;;;;5.38;2.58;;;15.70;99.90;;;;;;4915464;29;20121;-72
2023/07/01 02:40:18;;;;;;;4.97;2.55;;;15.70;99.90;;;;;;4927351;29;20052;-82
2023/07/01 02:42:44;;;;;;;5.30;2.58;;;15.60;99.90;;;;;;4934749;29;20030;-72
2023/07/01 02:45:10;;;;;;;5.80;3.20;;;15.60;99.90;;;;;;4917990;29;20038;-72
2023/07/01 02:47:35;;;;;;;4.50;2.72;;;15.50;99.90;;;;;;4934801;29;20056;-78
2023/07/01 02:50:01;;;;;;;4.90;3.08;;;15.50;99.90;;;;;;4934893;29;20070;-72
2023/07/01 02:52:26;;;;;;;3.28;2.95;;;15.60;99.90;;;;;;4934475;29;20072;-73
2023/07/01 02:54:52;;;;;;;4.97;2.55;;;15.60;99.90;;;;;;4934968;29;20039;-72
2023/07/01 02:57:18;;;;;;;3.20;2.90;;;15.50;99.90;;;;;;4935087;29;20055;-80
2023/07/01 02:59:43;;;;;;;3.33;2.60;;;15.50;99.90;;;;;;4934944;29;20049;-73
2023/07/01 03:02:09;;;;;;;7.38;2.63;;;15.50;99.90;;;;;;4935477;29;20395;-75
2023/07/01 03:04:35;;;;;;;6.43;3.40;;;15.50;99.90;;;;;;4934638;29;20110;-73
2023/07/01 03:07:01;;;;;;;5.68;3.00;;;15.40;99.90;;;;;;4935209;29;20031;-71
2023/07/01 03:09:27;;;;;;;3.83;2.80;;;15.40;99.90;;;;;;4934094;29;20028;-74
2023/07/01 03:11:53;;;;;;;4.03;2.50;;;15.40;99.90;;;;;;4934701;29;20035;-73
2023/07/01 03:14:19;;;;;;;4.18;2.80;;;15.40;99.90;;;;;;4917723;29;20115;-82
2023/07/01 03:16:46;;;;;;;4.38;2.92;;;15.40;99.90;;;;;;4934521;29;20063;-73
2023/07/01 03:19:12;;;;;;;5.78;3.42;;;15.40;99.90;;;;;;4934951;29;20434;-74
2023/07/01 03:21:38;;;;;;;3.53;2.70;;;15.40;99.90;;;;;;4933825;29;20540;-73
2023/07/01 03:24:04;;;;;;;4.57;2.95;;;15.40;99.90;;;;;;4935061;29;20028;-73
2023/07/01 03:26:29;;;;;;;3.63;2.92;;;15.40;99.90;;;;;;4933781;29;20433;-73
2023/07/01 03:28:55;;;;;;;5.25;3.35;;;15.40;99.90;;;;;;4934410;29;20034;-74
2023/07/01 03:31:21;;;;;;;3.80;2.80;;;15.40;99.90;;;;;;4934053;29;20043;-81
2023/07/01 03:33:47;;;;;;;4.75;2.78;;;15.40;99.90;;;;;;4934791;29;20067;-73
2023/07/01 03:36:12;;;;;;;4.25;2.70;;;15.30;99.90;;;;;;4933598;29;20040;-74
2023/07/01 03:38:38;;;;;;;4.28;3.00;;;15.30;99.90;;;;;;4934004;29;20083;-73
2023/07/01 03:41:06;;;;;;;3.30;2.40;;;15.30;99.90;;;;;;4934046;29;20023;-74
2023/07/01 03:43:32;;;;;;;8.60;3.08;;;15.30;99.90;;;;;;4933551;29;20126;-74
2023/07/01 03:45:57;;;;;;;3.45;2.72;;;15.40;99.90;;;;;;4912775;29;20172;-73
2023/07/01 03:48:23;;;;;;;6.25;3.33;;;15.40;99.90;;;;;;4915934;29;20028;-73
2023/07/01 03:50:48;;;;;;;4.90;2.78;;;15.40;99.90;;;;;;4934029;29;20031;-73
2023/07/01 03:53:14;;;;;;;4.43;3.00;;;15.40;99.90;;;;;;4934476;29;20390;-74
2023/07/01 03:55:40;;;;;;;3.53;2.92;;;15.50;99.90;;;;;;4933178;29;20028;-74
2023/07/01 03:58:05;;;;;;;13.68;3.42;;;15.50;99.90;;;;;;4934503;29;20031;-74
2023/07/01 04:00:31;;;;;;;4.43;2.22;;;15.60;99.90;;;;;;4933414;29;20118;-73
2023/07/01 04:03:05;;;;;;;4.53;2.70;;;15.60;99.90;;;;;;4934853;29;20032;-74
2023/07/01 04:05:34;;;;;;;3.08;2.60;;;15.70;99.90;;;;;;4933019;29;20035;-73
2023/07/01 04:08:00;;;;;;;4.75;2.95;;;15.70;99.90;;;;;;4934423;29;20035;-72
2023/07/01 04:10:25;;;;;;;5.57;2.60;;;15.70;99.90;;;;;;4932327;29;20031;-72
2023/07/01 04:12:51;;;;;;;3.33;2.80;;;15.80;99.90;;;;;;4934734;29;20100;-72
2023/07/01 04:15:17;;;;;;;4.93;2.50;;;15.80;99.90;;;;;;4933774;29;20039;-72
2023/07/01 04:17:45;;;;;;;4.97;2.58;;;15.80;99.90;;;;;;4933772;29;20032;-72
2023/07/01 04:20:11;;;;;;;4.63;3.00;;;15.80;99.90;;;;;;4932837;29;20051;-72
2023/07/01 04:22:37;;;;;;;4.57;2.92;;;15.90;99.90;;;;;;4937238;29;20087;-72
2023/07/01 04:25:03;;;;;;;3.22;2.75;;;15.80;99.90;;;;;;4937751;29;20036;-72
2023/07/01 04:27:29;;;;;;;3.30;2.80;;;15.90;99.90;;;;;;4937305;29;20488;-73
2023/07/01 04:29:55;;;;;;;3.00;2.40;;;15.90;99.90;;;;;;4937641;29;20034;-72
2023/07/01 04:32:21;;;;;;;3.53;2.78;;;15.90;99.90;;;;;;4938010;29;20388;-81
2023/07/01 04:34:46;;;;;;;3.08;2.30;;;16.00;99.90;;;;;;4937808;29;20082;-74
2023/07/01 04:37:12;;;;;;;5.97;2.80;;;16.00;99.90;;;;;;4938348;29;20032;-73
2023/07/01 04:39:37;;;;;;;3.63;2.72;;;16.10;99.90;;;;;;4937634;29;20579;-73
2023/07/01 04:42:03;;;;;;;3.17;2.80;;;16.10;99.90;;;;;;4938282;29;20024;-73
2023/07/01 04:44:29;;;;;;;6.65;3.47;;;16.20;99.90;;;;;;4919421;29;20135;-73
2023/07/01 04:46:54;;;;;;;6.38;3.30;;;16.20;99.90;;;;;;4914046;29;20079;-73
2023/07/01 04:49:20;;;;;;;4.50;2.60;;;16.30;99.90;;;;;;4936456;29;20035;-80
2023/07/01 04:51:47;;;;;;;3.97;2.58;;;16.50;99.90;;;;;;4937341;29;20043;-74
2023/07/01 04:54:16;;;;;;;5.93;3.47;;;16.50;99.90;;;;;;4937808;29;20042;-73
2023/07/01 04:56:41;;;;;;;5.70;2.55;;;16.50;99.90;;;;;;4936340;29;20400;-73
2023/07/01 04:59:07;;;;;;;6.10;3.00;;;16.60;99.90;;;;;;4937645;29;20038;-73
2023/07/01 05:01:32;;;;;;;4.30;2.88;;;16.60;99.90;;;;;;4936003;29;20031;-73
2023/07/01 05:03:58;;;;;;;3.00;2.42;;;16.70;99.90;;;;;;4937367;29;20036;-74
2023/07/01 05:06:24;;;;;;;3.95;2.75;;;16.70;99.90;;;;;;4935980;29;20469;-73
2023/07/01 05:08:50;;;;;;;4.07;2.83;;;16.80;99.90;;;;;;4937189;29;20091;-73
2023/07/01 05:11:15;;;;;;;2.55;2.35;;;16.90;99.90;;;;;;4936828;29;20084;-73
2023/07/01 05:13:41;;;;;;;6.57;2.72;;;16.90;99.90;;;;;;4936736;29;20933;-73
2023/07/01 05:16:06;;;;;;;4.22;2.97;;;17.00;99.90;;;;;;4936831;29;20039;-72
2023/07/01 05:18:32;;;;;;;3.55;2.40;;;17.10;99.90;;;;;;4936092;29;20063;-72
2023/07/01 05:20:58;;;;;;;3.90;2.65;;;17.20;99.90;;;;;;4936735;29;20469;-72
2023/07/01 05:23:23;;;;;;;3.20;2.80;;;17.30;99.90;;;;;;4935684;29;20028;-73
2023/07/01 05:25:49;;;;;;;4.55;2.65;;;17.30;99.90;;;;;;4936681;29;20028;-73
2023/07/01 05:28:15;;;;;;;3.55;2.30;;;17.50;99.90;;;;;;4936826;29;20039;-73
2023/07/01 05:30:40;;;;;;;4.43;2.53;;;17.50;99.90;;;;;;4935675;29;20024;-73
2023/07/01 05:33:06;;;;;;;5.68;2.30;;;17.60;99.90;;;;;;4935205;29;20040;-73
2023/07/01 05:35:32;;;;;;;3.60;2.33;;;17.70;99.90;;;;;;4908828;29;20433;-74
2023/07/01 05:37:57;;;;;;;3.42;2.63;;;17.80;99.90;;;;;;4926718;29;20079;-72
2023/07/01 05:40:23;;;;;;;5.45;2.53;;;17.90;99.90;;;;;;4935633;29;20087;-73
2023/07/01 05:42:49;;;;;;;3.75;2.40;;;18.00;99.90;;;;;;4936002;29;20500;-73
2023/07/01 05:45:15;;;;;;;5.05;2.30;;;18.10;99.90;;;;;;4936493;29;20393;-72
2023/07/01 05:47:40;;;;;;;4.45;2.30;;;18.10;99.90;;;;;;4930843;29;20035;-72
2023/07/01 05:50:06;;;;;;;3.33;2.53;;;18.10;99.90;;;;;;4936230;29;20032;-73
2023/07/01 05:52:32;;;;;;;3.08;2.30;;;18.30;99.90;;;;;;4915002;29;20482;-75
2023/07/01 05:54:57;;;;;;;2.35;2.00;;;18.30;99.90;;;;;;4928481;29;20385;-74
2023/07/01 05:57:23;;;;;;;3.65;2.85;;;18.40;99.90;;;;;;4912712;29;20082;-73
2023/07/01 05:59:49;;;;;;;4.43;2.25;;;18.50;99.90;;;;;;4929430;29;20065;-76
2023/07/01 06:02:15;;;;;;;7.43;2.25;;;18.60;99.90;;;;;;4910949;29;20462;-73
2023/07/01 06:04:40;;;;;;;3.42;2.33;;;18.80;99.90;;;;;;4926301;29;20031;-73
2023/07/01 06:07:06;;;;;;;3.13;1.83;;;18.80;99.90;;;;;;4929037;29;20079;-73
2023/07/01 06:09:32;;;;;;;6.30;2.35;;;18.90;99.90;;;;;;4927221;29;20027;-73
2023/07/01 06:11:57;;;;;;;4.78;2.20;;;19.00;99.90;;;;;;4912638;29;20051;-76
2023/07/01 06:14:23;;;;;;;3.17;2.30;;;19.10;99.90;;;;;;4926463;29;20075;-81
2023/07/01 06:16:48;;;;;;;3.58;2.13;;;19.10;99.90;;;;;;4928540;29;20532;-73
2023/07/01 06:19:14;;;;;;;4.70;2.40;;;19.20;99.90;;;;;;4931943;29;20027;-72
2023/07/01 06:21:39;;;;;;;5.05;2.28;;;19.30;99.90;;;;;;4928549;29;20618;-73
2023/07/01 06:24:05;;;;;;;7.88;2.25;;;19.30;99.90;;;;;;4929819;29;20480;-73
2023/07/01 06:26:31;;;;;;;3.75;1.98;;;19.40;99.90;;;;;;4931325;29;20032;-72
2023/07/01 06:28:56;;;;;;;4.32;1.90;;;19.40;99.90;;;;;;4929426;29;20087;-74
2023/07/01 06:31:22;;;;;;;3.58;1.88;;;19.50;99.90;;;;;;4931326;29;20051;-72
2023/07/01 06:33:48;;;;;;;5.15;1.88;;;19.70;99.90;;;;;;4925705;29;20031;-71
2023/07/01 06:36:17;;;;;;;3.83;1.50;;;19.80;99.90;;;;;;4927642;29;20127;-69
2023/07/01 06:38:43;;;;;;;5.80;2.53;;;19.80;99.90;;;;;;4925783;29;20051;-69
2023/07/01 06:41:09;;;;;;;4.85;2.72;;;19.90;99.90;;;;;;4927491;29;20039;-69
2023/07/01 06:43:38;;;;;;;4.35;1.75;;;20.00;99.90;;;;;;4928237;29;20044;-68
2023/07/01 06:46:06;;;;;;;2.05;1.63;;;20.10;99.90;;;;;;4926649;29;20028;-68
2023/07/01 06:48:31;;;;;;;4.63;2.20;;;20.20;99.90;;;;;;4925421;29;20032;-68
2023/07/01 06:50:57;;;;;;;3.17;2.17;;;20.20;99.90;;;;;;4927872;29;20036;-68
2023/07/01 06:53:22;;;;;;;2.53;1.48;;;20.30;99.90;;;;;;4925887;29;20110;-69
2023/07/01 06:55:48;;;;;;;4.40;1.90;;;20.40;99.90;;;;;;4929005;29;20397;-70
2023/07/01 06:58:14;;;;;;;2.47;1.65;;;20.50;99.90;;;;;;4928057;29;20032;-70
2023/07/01 07:00:40;;;;;;;2.35;1.75;;;20.50;99.90;;;;;;4929670;29;20015;-70
2023/07/01 07:03:05;;;;;;;4.53;1.73;;;20.50;99.90;;;;;;4926218;29;20023;-70
2023/07/01 07:05:32;;;;;;;6.55;1.85;;;20.50;99.90;;;;;;4926833;29;20473;-70
2023/07/01 07:07:58;;;;;;;3.38;1.60;;;20.60;99.90;;;;;;4925896;29;20394;-70
2023/07/01 07:10:24;;;;;;;4.97;2.40;;;20.70;99.90;;;;;;4922865;29;20024;-71
2023/07/01 07:12:49;;;;;;;3.90;1.80;;;20.70;99.90;;;;;;4929884;29;20131;-69
2023/07/01 07:15:15;;;;;;;5.50;1.80;;;20.90;99.90;;;;;;4928353;29;20040;-71
2023/07/01 07:17:40;;;;;;;4.93;1.85;;;21.00;99.70;;;;;;4927045;29;20645;-69
2023/07/01 07:20:07;;;;;;;2.30;1.75;;;21.10;99.60;;;;;;4927521;29;20135;-68
2023/07/01 07:22:32;;;;;;;3.20;2.00;;;21.20;99.30;;;;;;4927666;29;20031;-69
2023/07/01 07:24:59;;;;;;;6.10;1.63;;;21.30;99.30;;;;;;4926456;29;20145;-70
2023/07/01 07:27:25;;;;;;;4.60;1.70;;;21.40;99.20;;;;;;4923901;29;20087;-69
2023/07/01 07:29:50;;;;;;;3.78;1.80;;;21.50;99.10;;;;;;4932726;29;20548;-68
2023/07/01 07:32:16;;;;;;;2.33;1.35;;;21.60;98.50;;;;;;4934428;29;20036;-69
2023/07/01 07:34:42;;;;;;;3.67;2.10;;;21.60;98.30;;;;;;4932982;29;20087;-70
2023/07/01 07:37:07;;;;;;;3.92;1.75;;;21.70;98.10;;;;;;4922424;29;20071;-70
2023/07/01 07:39:33;;;;;;;5.30;1.65;;;21.90;97.40;;;;;;4931935;29;20064;-70
2023/07/01 07:41:59;;;;;;;3.50;1.50;;;22.10;97.10;;;;;;4934031;29;20039;-70
2023/07/01 07:44:24;;;;;;;3.40;1.92;;;22.30;96.70;;;;;;4930609;29;20067;-70
2023/07/01 07:46:50;;;;;;;5.03;1.55;;;22.50;96.30;;;;;;4922324;29;20036;-69
2023/07/01 07:49:16;;;;;;;3.42;1.90;;;22.80;95.70;;;;;;4934419;29;20477;-71
2023/07/01 07:51:42;;;;;;;2.92;1.60;;;22.90;95.40;;;;;;4932715;29;20462;-70
2023/07/01 07:54:08;;;;;;;3.13;2.00;;;22.90;95.30;;;;;;4934748;29;20116;-71
2023/07/01 07:56:33;;;;;;;3.25;1.95;;;22.90;95.00;;;;;;4915222;29;20478;-68
2023/07/01 07:58:59;;;;;;;2.33;1.58;;;23.00;94.90;;;;;;4934263;29;20110;-70
2023/07/01 08:01:24;;;;;;;3.85;1.55;;;23.10;94.40;;;;;;4933219;29;20036;-70
2023/07/01 08:03:50;;;;;;;9.70;1.70;;;23.20;94.70;;;;;;4933767;29;20043;-70
2023/07/01 08:06:16;;;;;;;2.38;1.88;;;23.40;94.50;;;;;;4919758;29;20032;-69
2023/07/01 08:08:42;;;;;;;3.05;1.40;;;23.80;93.60;;;;;;4931724;29;20465;-69
2023/07/01 08:11:08;;;;;;;4.85;1.92;;;23.70;93.90;;;;;;4932433;29;20023;-67
2023/07/01 08:13:33;;;;;;;3.45;1.83;;;23.80;93.90;;;;;;4926980;29;20102;-69
2023/07/01 08:15:59;;;;;;;3.35;1.63;;;23.70;93.70;;;;;;4932009;29;20035;-69
2023/07/01 08:18:25;;;;;;;5.78;1.85;;;23.70;93.90;;;;;;4928000;29;20075;-66
2023/07/01 08:20:53;;;;;;;4.13;1.73;;;23.70;93.90;;;;;;4929772;29;20405;-66
2023/07/01 08:23:19;;;;;;;5.63;2.25;;;23.70;93.70;;;;;;4931833;29;20027;-67
2023/07/01 08:25:45;;;;;;;4.75;1.88;;;23.80;99.90;;;;;;4932173;29;20385;-65
2023/07/01 08:28:10;;;;;;;2.00;1.75;;;23.90;99.90;;;;;;4932743;29;20733;-64
2023/07/01 08:30:36;;;;;;;4.32;1.80;;;23.80;99.90;;;;;;4932267;29;20031;-64
2023/07/01 08:33:01;;;;;;;3.53;2.03;;;23.50;99.90;;;;;;4933017;29;20473;-64
2023/07/01 08:35:28;;;;;;;2.60;1.73;;;23.30;99.90;;;;;;4931270;29;20036;-66
2023/07/01 08:37:54;;;;;;;3.10;2.15;;;23.20;99.90;;;;;;4933038;29;20027;-66
2023/07/01 08:40:20;;;;;;;1.70;1.60;;;23.10;99.90;;;;;;4932330;29;20122;-67
2023/07/01 08:42:51;;;;;;;2.25;1.70;;;23.00;99.90;;;;;;4931589;29;20342;-66
2023/07/01 08:45:24;;;;;;;5.55;2.33;;;22.80;99.90;;;;;;4932701;29;20043;-66
2023/07/01 08:47:52;;;;;;;2.45;1.60;;;22.70;99.90;;;;;;4928658;29;20036;-66
2023/07/01 08:50:22;;;;;;;6.07;2.05;;;22.70;99.90;;;;;;4933517;29;20032;-66
2023/07/01 08:52:52;;;;;;;;;;;22.70;99.90;;;;;;4932405;29;20040;-67
2023/07/01 08:55:18;;;;;;;;;;;22.90;99.90;;;;;;4931827;29;19958;-67
2023/07/01 08:57:43;;;;;;;3.67;1.90;;;22.80;99.90;;;;;;4933141;29;19961;-67
2023/07/01 09:00:12;;;;;;;2.97;2.00;;;23.00;99.90;;;;;;4933277;29;20046;-67
2023/07/01 09:02:39;;;;;;;3.83;2.20;;;23.20;99.90;;;;;;4932928;29;20032;-67
2023/07/01 09:05:05;;;;;;;4.05;1.92;;;23.40;99.90;;;;;;4933374;29;20363;-67
2023/07/01 09:07:31;;;;;;;4.20;1.80;;;23.50;99.90;;;;;;4930572;29;20031;-67
2023/07/01 09:09:57;;;;;;;3.22;1.58;;;23.60;99.90;;;;;;4936808;29;20036;-66
2023/07/01 09:12:30;;;;;;;1.67;1.45;;;23.60;99.90;;;;;;4936500;29;20491;-67
2023/07/01 09:15:08;;;;;;;3.75;1.67;;;23.60;99.90;;;;;;4934929;29;20075;-67
2023/07/01 09:17:36;;;;;;;4.43;1.60;;;23.60;99.90;;;;;;4936501;29;20027;-67
2023/07/01 09:20:07;;;;;;;4.38;1.80;;;23.70;99.90;;;;;;4919649;29;20031;-67
2023/07/01 09:22:34;;;;;;;3.05;1.77;;;23.80;99.90;;;;;;4936299;29;20035;-67
2023/07/01 09:25:01;;;;;;;3.58;1.77;;;23.90;99.90;;;;;;4936658;29;20115;-67
2023/07/01 09:27:49;;;;;;;2.50;1.52;;;24.10;99.80;;;;;;4936230;29;20032;-67
2023/07/01 09:30:24;;;;;;;2.03;1.50;;;;;;;;;;4926170;29;20533;-68
2023/07/01 09:32:49;;;;;;;1.73;1.60;;;24.60;99.80;;;;;;4936431;29;20024;-67
2023/07/01 09:35:15;;;;;;;6.03;1.60;;;24.60;87.30;;;;;;4936240;29;20091;-68
2023/07/01 09:37:40;;;;;;;6.88;1.45;;;24.70;86.80;;;;;;4935898;29;20134;-67
2023/07/01 09:40:26;;;;;;;3.55;1.48;;;24.60;85.80;;;;;;4936403;29;20036;-67
2023/07/01 09:42:54;;;;;;;2.75;1.48;;;24.60;84.20;;;;;;4936403;29;20488;-68
2023/07/01 09:45:20;;;;;;;3.10;1.55;;;24.50;84.30;;;;;;4935676;29;20039;-68
2023/07/01 09:47:52;;;;;;;2.47;1.70;;;24.40;84.70;;;;;;4936609;29;20035;-68
2023/07/01 09:50:29;;;;;;;3.67;1.98;;;24.50;83.10;;;;;;4935854;29;20480;-67
2023/07/01 09:52:56;;;;;;;2.72;1.70;;;24.60;83.00;;;;;;4936638;29;20466;-68
2023/07/01 09:55:25;;;;;;;1.70;1.58;;;24.60;82.50;;;;;;4935423;29;20035;-67
2023/07/01 09:57:52;;;;;;;3.10;1.90;;;24.70;81.00;;;;;;4936479;29;20039;-67
2023/07/01 10:00:19;;;;;;;4.55;1.70;;;24.70;81.90;;;;;;4935938;29;20350;-67
2023/07/01 10:02:47;;;;;;;3.28;1.70;;;24.70;80.80;;;;;;4936119;29;20051;-68
2023/07/01 10:05:13;;;;;;;3.25;1.80;;;24.90;80.50;;;;;;4935735;29;20106;-67
2023/07/01 10:07:44;;;;;;;6.15;2.30;;;24.90;78.70;;;;;;4917905;29;20598;-67
2023/07/01 10:10:12;;;;;;;2.40;2.15;;;25.00;79.00;;;;;;4932921;29;20038;-67
2023/07/01 10:12:42;;;;;;;2.92;2.10;;;25.20;78.10;;;;;;4935642;29;20035;-67
2023/07/01 10:15:10;;;;;;;5.78;2.25;;;25.40;77.50;;;;;;4935270;29;20088;-67
2023/07/01 10:17:49;;;;;;;4.03;2.50;;;25.50;75.50;;;;;;4935453;29;20027;-67
2023/07/01 10:20:33;;;;;;;3.60;2.25;;;25.50;75.20;;;;;;4935086;29;20028;-67
2023/07/01 10:23:06;;;;;;;5.57;2.00;;;25.60;74.70;;;;;;4935825;29;20063;-68
2023/07/01 10:25:32;;;;;;;4.90;2.13;;;25.50;75.70;;;;;;4934564;29;20031;-67
2023/07/01 10:28:00;;;;;;;5.78;2.13;;;25.50;76.50;;;;;;4936217;29;20035;-68
2023/07/01 10:30:46;;;;;;;3.55;2.33;;;25.60;76.40;;;;;;4934409;29;20374;-68
2023/07/01 10:33:27;;;;;;;5.70;2.45;;;25.80;75.50;;;;;;4935719;29;20032;-67
2023/07/01 10:36:03;;;;;;;3.35;2.22;;;26.00;73.50;;;;;;4935530;29;20043;-67
2023/07/01 10:38:33;;;;;;;3.05;2.30;;;26.00;73.40;;;;;;4933732;29;20330;-65
2023/07/01 10:40:58;;;;;;;3.63;2.35;;;26.00;72.50;;;;;;4926128;29;20031;-67
2023/07/01 10:43:31;;;;;;;3.67;2.40;;;26.00;73.10;;;;;;4935220;29;20072;-66
2023/07/01 10:46:19;;;;;;;4.78;2.47;;;26.20;72.80;;;;;;4935124;29;20051;-66
2023/07/01 10:49:05;;;;;;;3.42;2.17;;;26.40;72.30;;;;;;4929691;29;20027;-65
2023/07/01 10:51:43;;;;;;;5.55;2.47;;;26.90;72.60;;;;;;4934023;29;20111;-65
2023/07/01 10:54:09;;;;;;;3.08;2.05;;;27.20;72.40;;;;;;4935316;29;20036;-65
2023/07/01 10:56:39;;;;;;;4.45;2.53;;;27.40;71.80;;;;;;4934074;29;20032;-65
2023/07/01 10:59:21;;;;;;;3.75;2.22;;;;;;;;;;4934918;29;20462;-66
2023/07/01 11:01:48;;;;;;;4.10;2.25;;;;;;;;;;4935037;29;20032;-66
2023/07/01 11:04:14;;;;;;;3.30;2.20;;;;;;;;;;4934916;29;20030;-66
2023/07/01 11:06:45;;;;;;;4.25;3.05;;;;;;;;;;4928005;29;20091;-64
2023/07/01 11:09:11;;;;;;;3.58;2.65;;;;;;;;;;4927146;29;20114;-65
2023/07/01 11:11:37;;;;;;;2.78;2.45;;;;;;;;;;4933177;29;20111;-66
2023/07/01 11:14:05;;;;;;;6.10;2.63;;;;;;;;;;4934091;29;20032;-65
2023/07/01 11:16:32;;;;;;;3.47;2.72;;;;;;;;;;4932073;29;20087;-66
2023/07/01 11:19:00;;;;;;;6.63;3.05;;;;;;;;;;4927992;29;20118;-65
2023/07/01 11:21:27;;;;;;;4.72;2.40;;;;;;;;;;4928486;29;20051;-66
2023/07/01 11:23:55;;;;;;;5.05;2.63;;;;;;;;;;4932953;29;20051;-66
2023/07/01 11:26:22;;;;;;;6.68;3.08;;;;;;;;;;4932069;29;20040;-67
2023/07/01 11:28:48;;;;;;;3.33;2.83;;;;;;;;;;4933944;29;20028;-66
2023/07/01 11:31:15;;;;;;;7.80;3.20;;;;;;;;;;4931430;29;20031;-66
2023/07/01 11:33:50;;;;;;;6.00;3.10;;;;;;;;;;4932482;29;20020;-66
2023/07/01 11:36:20;;;;;;;4.47;2.70;;;;;;;;;;4933405;29;20085;-66
2023/07/01 11:38:47;;;;;;;6.63;3.10;;;;;;;;;;4932642;29;20138;-66
2023/07/01 11:41:14;;;;;;;3.05;2.63;;;;;;;;;;4933072;29;20501;-65
2023/07/01 11:43:41;;;;;;;4.50;2.70;;;;;;;;;;4932482;29;20056;-65
2023/07/01 11:46:07;;;;;;;4.47;2.78;;;;;;;;;;4932326;29;20035;-65
2023/07/01 11:48:33;;;;;;;3.72;3.03;;;;;;;;;;4926105;29;20032;-66
2023/07/01 11:50:59;;;;;;;3.63;2.40;;;;;;;;;;4933102;29;20171;-66
2023/07/01 11:53:26;;;;;;;3.15;2.45;;;;;;;;;;4927918;29;20376;-67
2023/07/01 11:55:53;;;;;;;5.13;2.88;;;;;;;;;;4921009;29;20032;-66
2023/07/01 11:58:37;;;;;;;3.88;2.63;;;;;;;;;;4934193;29;20050;-67
2023/07/01 12:01:03;;;;;;;8.70;2.50;;;;;;;;;;4923369;29;20036;-66
2023/07/01 12:03:33;;;;;;;5.40;2.50;;;;;;;;;;4933378;29;20477;-67
2023/07/01 12:05:59;;;;;;;4.47;2.53;;;;;;;;;;4932889;29;20505;-67
2023/07/01 12:08:25;;;;;;;5.47;2.95;;;;;;;;;;4933608;29;20051;-67
2023/07/01 12:10:52;;;;;;;4.88;2.22;;;;;;;;;;4933475;29;20059;-66
2023/07/01 12:13:44;;;;;;;3.20;2.50;;;;;;;;;;4934184;29;20034;-64
2023/07/01 12:16:10;;;;;;;4.20;2.85;;;;;;;;;;4929360;29;20051;-63
2023/07/01 12:18:35;;;;;;;4.75;2.80;;;;;;;;;;4933089;29;20492;-64
2023/07/01 12:21:01;;;;;;;4.07;2.92;;;;;;;;;;4933691;29;20024;-64
2023/07/01 12:23:28;;;;;;;6.10;2.47;;;;;;;;;;4933029;29;20493;-64
2023/07/01 12:25:54;;;;;;;5.43;2.60;;;;;;;;;;4933773;29;20038;-64
2023/07/01 12:28:20;;;;;;;5.40;2.45;;;;;;;;;;4933723;29;20087;-66
2023/07/01 12:30:47;;;;;;;3.58;2.47;;;;;;;;;;4933327;29;20079;-65
2023/07/01 12:33:13;;;;;;;5.18;2.15;;;;;;;;;;4933747;29;20020;-64
2023/07/01 12:35:40;;;;;;;6.22;2.25;;;;;;;;;;4932975;29;20063;-65
2023/07/01 12:38:08;;;;;;;5.78;2.58;;;;;;;;;;4934394;29;20046;-64
2023/07/01 12:40:34;;;;;;;2.28;2.08;;;;;;;;;;4932422;29;20376;-65
2023/07/01 12:43:00;;;;;;;2.72;1.98;;;;;;;;;;4936100;29;20058;-64
2023/07/01 12:45:26;;;;;;;4.50;2.35;;;;;;;;;;4930770;29;20184;-64
2023/07/01 12:47:52;;;;;;;3.15;2.40;;;;;;;;;;4935936;29;20121;-64
2023/07/01 12:50:17;;;;;;;2.60;2.10;;;;;;;;;;4934642;29;20063;-65
2023/07/01 12:52:43;;;;;;;2.53;2.10;;;;;;;;;;4933299;29;20474;-65
2023/07/01 12:55:10;;;;;;;7.15;2.03;;;;;;;;;;4933380;29;20028;-66
2023/07/01 12:57:36;;;;;;;2.20;1.92;;;;;;;;;;4934909;29;20034;-65
2023/07/01 13:00:06;;;;;;;2.17;1.90;;;;;;;;;;4935332;29;20032;-68
2023/07/01 13:02:34;;;;;;;3.20;1.85;;;;;;;;;;4933083;29;20068;-68
2023/07/01 13:05:01;;;;;;;3.78;2.30;;;;;;;;;;4935059;29;20102;-68
2023/07/01 13:07:28;;;;;;;3.20;1.83;;;;;;;;;;4934409;29;20027;-68
2023/07/01 13:09:55;;;;;;;2.83;2.05;;;;;;;;;;4936047;29;20052;-68